Impacts METAR Board
IDs:

KBMQ - Burnet Muni, TX, US

Updated at: 0100 UTC 15 Aug 2020
Potential Impact None Slight Moderate High
Time 14/13Z 14/14Z 14/15Z 14/16Z 14/17Z 14/18Z 14/19Z 14/20Z 14/21Z 14/22Z 14/23Z 15/00Z 15/01Z
Temp77 81 85 89 93 96 100 101 102 103 103 102 99
Dewpt70 70 67 64 62 60 57 55 52 50 51 51 50
Altim29.99 30.00 29.99 30.00 30.00 29.97 29.95 29.92 29.90 29.88 29.87 29.86 29.87
VIS10 10 10 10 10 10 10 10 10 10 10 10 10
CIG-- -- -- -- -- -- -- -- -- -- -- -- --
CoverCLRCLRCLRCLRCLRCLRCLRCLRCLRCLRCLRCLRCLR
FltCatVFRVFRVFRVFRVFRVFRVFRVFRVFRVFRVFRVFRVFR
WX--------------------------
WDir1902202102402001702201600170170170
WSpd6 8 8 10 7 6 8 8 4 7 8 5
WGst-- -- -- 17 -- -- 15 -- 14 14 -- -- --
Raw hourly METARs
KBMQ 141253Z AUTO 19006KT 10SM CLR 25/21 A2999 RMK AO2 SLP133 T02500211
KBMQ 141353Z AUTO 22008KT 10SM CLR 27/21 A3000 RMK AO2 SLP139 T02720211
KBMQ 141453Z AUTO 21008KT 10SM CLR 29/19 A2999 RMK AO2 SLP136 T02940194 50006
KBMQ 141553Z AUTO 24010G17KT 10SM CLR 32/18 A3000 RMK AO2 SLP136 T03170178
KBMQ 141653Z AUTO 20007KT 10SM CLR 34/17 A3000 RMK AO2 SLP135 T03390167
KBMQ 141753Z AUTO 17006KT 10SM CLR 36/16 A2997 RMK AO2 SLP127 T03560156 10361 20244 58007
KBMQ 141853Z AUTO 22008G15KT 180V250 10SM CLR 38/14 A2995 RMK AO2 SLP118 T03780139
KBMQ 141953Z AUTO 10SM CLR 38/13 A2992 RMK AO2 SLP109 T03830128
KBMQ 142053Z AUTO 16008G14KT 10SM CLR 39/11 A2990 RMK AO2 SLP102 T03890111 56024
KBMQ 142153Z AUTO VRB04G14KT 10SM CLR 39/10 A2988 RMK AO2 SLP096 T03940100
KBMQ 142253Z AUTO 17007KT 10SM CLR 39/11 A2987 RMK AO2 SLP090 T03940106
KBMQ 142353Z AUTO 17008KT 10SM CLR 39/11 A2986 RMK AO2 SLP089 T03890106 10400 20356 56013
KBMQ 150053Z AUTO 17005KT 10SM CLR 37/10 A2987 RMK AO2 SLP093 T03720100